Brilliance Of The Seas — C6SJ5 — position and weather

sailwx.info

Track history (hours):
 
Tides and Currents Weather Stations Pressure Air Temp Water Temp Dewpoint Dewpoint Depression Visibility Wind Speed Wind Dir Waves Ship Positions

Brilliance Of The Seas

Operator: Royal Caribbean Cruises Ltd

Last reported at 2014-Sep-23 18:31 UTC. Time now 2014-Sep-23 20:28 UTC.
Position N 44°38' W 063°34'.

Type: Ship. MMSI: 311361000.

Date/timePositionNaut miles runAvg speedWind from/ knotsBaromVisibWave heightAir tempDewpointWater temp
2014-Sep-23 18:31N 44°38' W 063°34'0 0.0
2014-Sep-23 17:31N 44°38' W 063°34'0 0.0
2014-Sep-23 16:31N 44°38' W 063°34'0 0.0
2014-Sep-23 15:31N 44°38' W 063°34'0 0.0
2014-Sep-23 14:22N 44°38' W 063°34'0 0.0
2014-Sep-23 13:25N 44°38' W 063°34'0 0.0
2014-Sep-23 12:25N 44°38' W 063°34'0 0.0
2014-Sep-23 11:25N 44°38' W 063°34'0 0.0
2014-Sep-23 10:25N 44°38' W 063°34'1 0.9
2014-Sep-23 09:33N 44°37' W 063°33'1110.5
2014-Sep-23 08:33N 44°28' W 063°28'34410.0
2014-Sep-21 22:15N 42°23' W 070°50'9 0.7
2014-Sep-21 10:20N 42°21' W 071°01'910.3
2014-Sep-21 09:30N 42°24' W 070°50'5212.6
2014-Sep-21 05:24N 42°23' W 069°40'296 9.6
2014-Sep-19 22:28N 44°27' W 063°29'1112.5
2014-Sep-19 21:33N 44°38' W 063°33'0 0.4
2014-Sep-19 20:25N 44°38' W 063°34'0 0.0
2014-Sep-19 19:25N 44°38' W 063°34'0 0.0
2014-Sep-19 18:22N 44°38' W 063°34'0 0.0
2014-Sep-19 17:28N 44°38' W 063°34'0 0.0
2014-Sep-19 16:28N 44°38' W 063°34'0 0.0
2014-Sep-19 15:25N 44°38' W 063°34'0 0.0
2014-Sep-19 14:31N 44°38' W 063°34'0 0.0
2014-Sep-19 13:31N 44°38' W 063°34'0 0.0
2014-Sep-19 12:31N 44°38' W 063°34'1 0.6
2014-Sep-19 11:33N 44°39' W 063°33'1010.0
2014-Sep-19 10:33N 44°29' W 063°28'7 6.9
2014-Sep-19 09:33N 44°23' W 063°24'  
2014-Sep-15 23:22N 43°30' W 070°02'810.3
2014-Sep-15 22:33N 43°36' W 070°10'5 0.4
2014-Sep-15 10:20N 43°40' W 070°14'911.3
2014-Sep-15 09:31N 43°32' W 070°06'71 7.1
2014-Sep-14 23:33N 42°27' W 070°43'14 0.9
2014-Sep-14 07:08N 42°21' W 071°01'5 8.6
2014-Sep-14 06:31N 42°23' W 070°54'1615.5
2014-Sep-14 05:30N 42°21' W 070°33'  
Track history (hours):
 
Tides and Currents Weather Stations Pressure Air Temp Water Temp Dewpoint Dewpoint Depression Visibility Wind Speed Wind Dir Waves Ship Positions

Brilliance Of The Seas

Operator: Royal Caribbean Cruises Ltd

Last reported at 2014-Sep-23 18:31 UTC. Time now 2014-Sep-23 20:28 UTC.
Position N 44°38' W 063°34'.

Type: Ship. MMSI: 311361000.

Date/timePositionNaut miles runAvg speedWind from/ knotsBaromVisibWave heightAir tempDewpointWater temp
2014-Sep-23 18:31N 44°38' W 063°34'0 0.0
2014-Sep-23 17:31N 44°38' W 063°34'0 0.0
2014-Sep-23 16:31N 44°38' W 063°34'0 0.0
2014-Sep-23 15:31N 44°38' W 063°34'0 0.0
2014-Sep-23 14:22N 44°38' W 063°34'0 0.0
2014-Sep-23 13:25N 44°38' W 063°34'0 0.0
2014-Sep-23 12:25N 44°38' W 063°34'0 0.0
2014-Sep-23 11:25N 44°38' W 063°34'0 0.0
2014-Sep-23 10:25N 44°38' W 063°34'1 0.9
2014-Sep-23 09:33N 44°37' W 063°33'1110.5
2014-Sep-23 08:33N 44°28' W 063°28'34410.0
2014-Sep-21 22:15N 42°23' W 070°50'9 0.7
2014-Sep-21 10:20N 42°21' W 071°01'910.3
2014-Sep-21 09:30N 42°24' W 070°50'5212.6
2014-Sep-21 05:24N 42°23' W 069°40'296 9.6
2014-Sep-19 22:28N 44°27' W 063°29'1112.5
2014-Sep-19 21:33N 44°38' W 063°33'0 0.4
2014-Sep-19 20:25N 44°38' W 063°34'0 0.0
2014-Sep-19 19:25N 44°38' W 063°34'0 0.0
2014-Sep-19 18:22N 44°38' W 063°34'0 0.0
2014-Sep-19 17:28N 44°38' W 063°34'0 0.0
2014-Sep-19 16:28N 44°38' W 063°34'0 0.0
2014-Sep-19 15:25N 44°38' W 063°34'0 0.0
2014-Sep-19 14:31N 44°38' W 063°34'0 0.0
2014-Sep-19 13:31N 44°38' W 063°34'0 0.0
2014-Sep-19 12:31N 44°38' W 063°34'1 0.6
2014-Sep-19 11:33N 44°39' W 063°33'1010.0
2014-Sep-19 10:33N 44°29' W 063°28'7 6.9
2014-Sep-19 09:33N 44°23' W 063°24'  
2014-Sep-15 23:22N 43°30' W 070°02'810.3
2014-Sep-15 22:33N 43°36' W 070°10'5 0.4
2014-Sep-15 10:20N 43°40' W 070°14'911.3
2014-Sep-15 09:31N 43°32' W 070°06'71 7.1
2014-Sep-14 23:33N 42°27' W 070°43'14 0.9
2014-Sep-14 07:08N 42°21' W 071°01'5 8.6
2014-Sep-14 06:31N 42°23' W 070°54'1615.5
2014-Sep-14 05:30N 42°21' W 070°33'  

Dump ship's entire track history